.
WxDataArchive / Data Records for 2008-10-11
2008-10-10 October 2008 2008-10-12

Data Records for Saturday, 11 October 2008

Time	Temp	Chill	HIndex	Humid	Dewpt	 Wind 	HiWind	WindDir	Rain 	Barom 
-----	----	-----	------	-----	-----	------	------	-------	-----	----- 
00:00	51.0	51.0	51.0	77	44.0	0	0	---	0.00	30.207 
00:05	50.7	50.7	50.7	77	43.8	0	0	---	0.00	30.205 
00:10	50.5	50.5	50.5	78	43.9	0	1	90	0.00	30.204 
00:15	50.4	50.4	50.4	79	44.1	0	1	90	0.00	30.206 
00:20	50.2	50.2	50.2	79	43.9	0	1	90	0.00	30.206 
00:25	50.2	50.2	50.2	79	43.9	0	1	90	0.00	30.208 
00:30	50.1	50.1	50.1	79	43.8	0	0	---	0.00	30.208 
00:35	49.9	49.9	49.9	79	43.6	0	0	---	0.00	30.209 
00:40	49.6	49.6	49.6	80	43.7	0	0	---	0.00	30.209 
00:45	49.4	49.4	49.4	80	43.5	0	0	---	0.00	30.209 
00:50	48.9	48.9	48.9	81	43.3	0	0	---	0.00	30.209 
00:55	48.6	48.6	48.6	82	43.4	0	0	---	0.00	30.210 
01:00	48.3	48.3	48.3	83	43.4	0	0	---	0.00	30.210 
01:05	48.0	48.0	48.0	84	43.4	0	0	---	0.00	30.211 
01:10	47.7	47.7	47.7	84	43.1	0	0	---	0.00	30.214 
01:15	47.6	47.6	47.6	84	43.0	0	0	---	0.00	30.213 
01:20	47.3	47.3	47.3	85	43.0	0	0	---	0.00	30.215 
01:25	47.1	47.1	47.1	85	42.8	0	0	---	0.00	30.214 
01:30	47.0	47.0	47.0	86	43.0	0	0	---	0.00	30.214 
01:35	47.0	47.0	47.0	86	43.0	0	0	---	0.00	30.214 
01:40	47.3	47.3	47.3	87	43.6	0	2	90	0.00	30.214 
01:45	47.4	47.4	47.4	86	43.4	0	1	90	0.00	30.215 
01:50	47.6	47.6	47.6	86	43.6	0	0	---	0.00	30.215 
01:55	47.6	47.6	47.6	86	43.6	0	0	---	0.00	30.217 
02:00	47.6	47.6	47.6	86	43.6	0	0	---	0.00	30.220 
02:05	47.4	47.4	47.4	86	43.4	0	0	---	0.00	30.221 
02:10	47.4	47.4	47.4	86	43.4	0	0	---	0.00	30.222 
02:15	47.3	47.3	47.3	86	43.3	0	0	---	0.00	30.222 
02:20	47.1	47.1	47.1	86	43.1	0	0	---	0.00	30.220 
02:25	47.0	47.0	47.0	87	43.3	0	0	---	0.00	30.220 
02:30	47.0	47.0	47.0	87	43.3	0	0	---	0.00	30.221 
02:35	47.0	47.0	47.0	87	43.3	0	0	---	0.00	30.222 
02:40	46.8	46.8	46.8	87	43.1	0	0	---	0.00	30.220 
02:45	46.7	46.7	46.7	88	43.3	0	0	---	0.00	30.219 
02:50	46.7	46.7	46.7	88	43.3	0	0	---	0.00	30.218 
02:55	46.7	46.7	46.7	88	43.3	0	0	---	0.00	30.216 
03:00	46.5	46.5	46.5	88	43.1	0	0	---	0.00	30.217 
03:05	46.5	46.5	46.5	88	43.1	0	0	---	0.00	30.216 
03:10	46.4	46.4	46.4	88	43.0	0	0	---	0.00	30.217 
03:15	46.4	46.4	46.4	88	43.0	0	0	---	0.00	30.218 
03:20	46.4	46.4	46.4	88	43.0	0	0	---	0.00	30.222 
03:25	46.5	46.5	46.5	88	43.1	0	0	---	0.00	30.220 
03:30	46.7	46.7	46.7	88	43.3	0	0	---	0.00	30.220 
03:35	46.8	46.8	46.8	87	43.1	0	0	---	0.00	30.222 
03:40	46.8	46.8	46.8	87	43.1	0	0	---	0.00	30.224 
03:45	47.0	47.0	47.0	87	43.3	0	0	---	0.00	30.225 
03:50	47.1	47.1	47.1	87	43.4	0	0	---	0.00	30.226 
03:55	47.3	47.3	47.3	86	43.3	0	0	---	0.00	30.226 
04:00	47.3	47.3	47.3	86	43.3	0	0	---	0.00	30.227 
04:05	47.3	47.3	47.3	86	43.3	0	0	---	0.00	30.232 
04:10	47.3	47.3	47.3	86	43.3	0	0	---	0.00	30.235 
04:15	47.3	47.3	47.3	85	43.0	0	0	---	0.00	30.235 
04:20	47.1	47.1	47.1	85	42.8	0	0	---	0.00	30.236 
04:25	47.1	47.1	47.1	85	42.8	0	0	---	0.00	30.237 
04:30	47.0	47.0	47.0	86	43.0	0	0	---	0.00	30.238 
04:35	47.0	47.0	47.0	86	43.0	0	0	---	0.00	30.240 
04:40	47.0	47.0	47.0	86	43.0	0	0	---	0.00	30.241 
04:45	47.1	47.1	47.1	85	42.8	0	1	90	0.00	30.241 
04:50	47.3	47.3	47.3	85	43.0	0	0	---	0.00	30.241 
04:55	47.4	47.4	47.4	84	42.8	0	0	---	0.00	30.242 
05:00	47.6	47.6	47.6	84	43.0	0	1	90	0.00	30.241 
05:05	47.7	47.7	47.7	84	43.1	0	0	---	0.00	30.246 
05:10	47.7	47.7	47.7	84	43.1	0	0	---	0.00	30.248 
05:15	47.7	47.7	47.7	84	43.1	0	0	---	0.00	30.249 
05:20	47.7	47.7	47.7	84	43.1	0	1	90	0.00	30.250 
05:25	47.7	47.7	47.7	84	43.1	0	0	---	0.00	30.250 
05:30	47.7	47.7	47.7	84	43.1	0	1	90	0.00	30.250 
05:35	47.9	47.9	47.9	84	43.3	0	1	90	0.00	30.254 
05:40	47.9	47.9	47.9	84	43.3	0	0	---	0.00	30.257 
05:45	47.9	47.9	47.9	84	43.3	0	1	90	0.00	30.259 
05:50	47.7	47.7	47.7	84	43.1	0	0	---	0.00	30.260 
05:55	47.7	47.7	47.7	84	43.1	0	1	90	0.00	30.261 
06:00	47.9	47.9	47.9	84	43.3	0	1	90	0.00	30.261 
06:05	47.9	47.9	47.9	84	43.3	0	1	90	0.00	30.266 
06:10	47.9	47.9	47.9	84	43.3	0	1	90	0.00	30.267 
06:15	47.9	47.9	47.9	84	43.3	0	1	90	0.00	30.268 
06:20	48.0	48.0	48.0	84	43.4	0	3	90	0.00	30.267 
06:25	48.0	48.0	48.0	84	43.4	0	2	90	0.00	30.270 
06:30	48.0	48.0	48.0	84	43.4	0	1	90	0.00	30.273 
06:35	48.0	48.0	48.0	84	43.4	0	2	90	0.00	30.273 
06:40	48.0	48.0	48.0	84	43.4	0	1	90	0.00	30.276 
06:45	47.9	47.9	47.9	84	43.3	0	2	90	0.00	30.277 
06:50	47.9	47.9	47.9	84	43.3	0	1	90	0.00	30.279 
06:55	47.9	47.9	47.9	84	43.3	0	3	90	0.00	30.279 
07:00	47.9	47.9	47.9	84	43.3	0	2	90	0.00	30.279 
07:05	47.9	47.9	47.9	85	43.6	0	2	90	0.00	30.283 
07:10	48.0	48.0	48.0	85	43.7	0	2	90	0.00	30.283 
07:15	48.0	48.0	48.0	84	43.4	1	2	90	0.00	30.283 
07:20	48.3	48.3	48.3	84	43.7	1	3	90	0.00	30.283 
07:25	48.5	48.5	48.5	84	43.9	1	3	90	0.00	30.284 
07:30	48.8	48.8	48.8	84	44.2	1	2	90	0.00	30.284 
07:35	48.9	48.9	48.9	83	44.0	0	2	90	0.00	30.285 
07:40	49.4	49.4	49.4	83	44.5	0	2	90	0.00	30.287 
07:45	49.6	49.6	49.6	82	44.3	0	2	90	0.00	30.286 
07:50	49.9	49.9	49.9	81	44.3	1	3	90	0.00	30.289 
07:55	50.2	50.2	50.2	81	44.6	1	3	90	0.00	30.290 
08:00	50.5	50.5	50.5	80	44.6	1	3	90	0.00	30.292 
08:05	51.0	51.0	51.0	79	44.7	2	4	90	0.00	30.295 
08:10	51.3	51.3	51.3	78	44.7	1	4	68	0.00	30.296 
08:15	51.7	51.7	51.7	77	44.7	1	3	112	0.00	30.295 
08:20	52.2	52.2	52.2	77	45.2	1	2	112	0.00	30.294 
08:25	52.5	52.5	52.5	76	45.2	1	4	112	0.00	30.295 
08:30	52.9	52.9	52.9	74	44.8	1	3	90	0.00	30.295 
08:35	53.2	53.2	53.2	74	45.1	1	4	112	0.00	30.295 
08:40	53.6	53.6	53.6	74	45.5	1	4	90	0.00	30.294 
08:45	54.1	54.1	54.1	73	45.6	1	2	90	0.00	30.295 
08:50	54.7	54.7	54.7	72	45.9	1	3	90	0.00	30.295 
08:55	55.1	55.1	55.1	71	45.9	1	3	90	0.00	30.295 
09:00	55.9	55.9	55.9	70	46.3	1	3	90	0.00	30.295 
09:05	56.9	56.9	56.9	68	46.4	1	3	90	0.00	30.297 
09:10	58.0	58.0	58.0	66	46.7	1	3	90	0.00	30.295 
09:15	58.6	58.6	58.6	65	46.9	1	3	90	0.00	30.295 
09:20	59.3	59.3	59.3	63	46.7	0	2	90	0.00	30.295 
09:25	60.4	60.4	60.4	59	46.0	1	2	90	0.00	30.295 
09:30	60.9	60.9	60.9	57	45.6	2	4	90	0.00	30.295 
09:35	61.5	61.5	61.5	57	46.1	0	2	90	0.00	30.296 
09:40	62.3	62.3	62.3	56	46.4	1	4	90	0.00	30.292 
09:45	62.9	62.9	62.9	54	46.0	1	4	90	0.00	30.291 
09:50	62.9	62.9	62.9	54	46.0	2	6	90	0.00	30.291 
09:55	63.2	63.2	63.2	55	46.8	1	5	90	0.00	30.290 
10:00	63.5	63.5	63.5	54	46.6	2	7	90	0.00	30.289 
10:05	64.2	64.2	64.2	55	47.7	1	3	90	0.00	30.291 
10:10	65.0	65.0	65.0	53	47.4	1	4	90	0.00	30.289 
10:15	65.5	65.5	65.5	53	47.9	2	5	68	0.00	30.289 
10:20	66.1	66.1	66.1	53	48.5	1	2	68	0.00	30.287 
10:25	66.9	66.9	66.9	51	48.2	1	3	68	0.00	30.285 
10:30	67.8	67.8	67.8	51	49.0	1	3	68	0.00	30.285 
10:35	68.3	68.3	68.3	51	49.5	1	3	112	0.00	30.284 
10:40	68.8	68.8	68.8	51	49.9	0	2	90	0.00	30.282 
10:45	69.3	69.3	69.3	48	48.8	1	3	112	0.00	30.281 
10:50	69.8	69.8	69.8	48	49.2	1	2	112	0.00	30.280 
10:55	69.4	69.4	69.4	49	49.4	1	3	112	0.00	30.274 
11:00	68.8	68.8	68.8	50	49.4	0	2	112	0.00	30.276 
11:05	68.9	68.9	68.9	51	50.0	0	2	112	0.00	30.278 
11:10	69.6	69.6	69.6	52	51.2	1	3	112	0.00	30.274 
11:15	70.6	70.6	70.6	49	50.5	0	2	112	0.00	30.273 
11:20	71.6	71.6	71.6	46	49.7	1	3	45	0.00	30.272 
11:25	72.0	72.0	72.0	49	51.8	1	3	68	0.00	30.270 
11:30	72.3	72.3	72.3	47	50.9	1	4	68	0.00	30.269 
11:35	72.8	72.8	72.8	47	51.4	1	4	68	0.00	30.266 
11:40	73.5	73.5	73.5	48	52.6	1	5	90	0.00	30.263 
11:45	74.4	74.4	74.4	46	52.3	1	6	90	0.00	30.261 
11:50	75.4	75.4	77.8	47	53.7	1	5	90	0.00	30.259 
11:55	76.3	76.3	78.1	44	52.8	1	3	112	0.00	30.258 
12:00	77.0	77.0	78.5	46	54.6	1	3	112	0.00	30.251 
12:05	77.6	77.6	78.8	45	54.6	1	6	112	0.00	30.253 
12:10	77.9	77.9	78.9	44	54.2	1	4	112	0.00	30.251 
12:15	77.4	77.4	78.6	43	53.1	1	3	90	0.00	30.250 
12:20	77.2	77.2	78.5	45	54.2	0	2	90	0.00	30.251 
12:25	77.6	77.6	78.8	46	55.2	0	1	90	0.00	30.251 
12:30	78.1	78.1	79.0	45	55.0	1	3	112	0.00	30.248 
12:35	78.5	78.5	79.4	46	56.0	0	1	112	0.00	30.246 
12:40	79.0	79.0	79.4	42	53.9	0	2	112	0.00	30.244 
12:45	79.2	79.2	79.6	43	54.7	0	1	112	0.00	30.243 
12:50	79.2	79.2	79.5	42	54.1	0	1	112	0.00	30.242 
12:55	79.2	79.2	79.8	46	56.6	0	2	112	0.00	30.239 
13:00	79.8	79.8	80.3	46	57.2	1	3	270	0.00	30.235 
13:05	80.1	80.1	80.2	42	54.9	1	3	292	0.00	30.233 
13:10	80.5	80.5	80.6	44	56.6	1	3	112	0.00	30.233 
13:15	80.7	80.7	80.7	43	56.1	1	4	90	0.00	30.233 
13:20	80.7	80.7	80.7	43	56.1	0	3	112	0.00	30.231 
13:25	80.9	80.9	80.9	43	56.3	1	3	270	0.00	30.230 
13:30	81.1	81.1	80.9	42	55.8	1	2	270	0.00	30.229 
13:35	81.1	81.1	80.7	40	54.5	1	4	68	0.00	30.227 
13:40	81.2	81.2	81.0	42	55.9	1	3	112	0.00	30.222 
13:45	81.2	81.2	80.8	40	54.6	1	7	112	0.00	30.219 
13:50	81.2	81.2	80.9	41	55.2	1	6	112	0.00	30.220 
13:55	81.4	81.4	81.0	40	54.7	2	5	112	0.00	30.218 
14:00	81.4	81.4	80.8	38	53.3	1	4	90	0.00	30.219 
14:05	81.8	81.8	81.2	39	54.4	0	3	338	0.00	30.218 
14:10	82.2	82.2	81.2	36	52.6	1	4	0	0.00	30.218 
14:15	82.6	82.6	81.6	37	53.7	0	3	270	0.00	30.218 
14:20	82.8	82.8	81.2	32	49.9	1	4	112	0.00	30.217 
14:25	82.8	82.8	81.4	34	51.5	1	2	90	0.00	30.217 
14:30	82.6	82.6	81.3	34	51.4	1	3	90	0.00	30.217 
14:35	82.6	82.6	81.2	33	50.6	0	3	90	0.00	30.216 
14:40	82.6	82.6	81.2	33	50.6	1	4	112	0.00	30.216 
14:45	82.8	82.8	81.3	33	50.7	1	4	112	0.00	30.215 
14:50	82.8	82.8	81.2	31	49.0	1	3	158	0.00	30.215 
14:55	82.8	82.8	81.2	32	49.9	2	7	90	0.00	30.215 
15:00	83.0	83.0	81.3	31	49.2	0	4	248	0.00	30.215 
15:05	83.0	83.0	81.2	30	48.3	0	2	68	0.00	30.216 
15:10	83.2	83.2	81.5	31	49.4	1	3	90	0.00	30.216 
15:15	83.2	83.2	81.4	30	48.5	1	4	248	0.00	30.216 
15:20	83.2	83.2	81.2	28	46.7	1	4	270	0.00	30.216 
15:25	83.0	83.0	81.1	29	47.4	1	3	90	0.00	30.216 
15:30	82.8	82.8	80.9	28	46.3	1	4	90	0.00	30.217 
15:35	82.6	82.6	80.8	28	46.2	2	5	90	0.00	30.218 
15:40	82.6	82.6	80.8	29	47.1	1	3	90	0.00	30.221 
15:45	82.6	82.6	80.8	28	46.2	1	5	90	0.00	30.221 
15:50	82.4	82.4	80.9	31	48.7	1	3	90	0.00	30.221 
15:55	82.4	82.4	80.8	30	47.8	0	2	90	0.00	30.221 
16:00	82.2	82.2	80.5	29	46.8	1	4	90	0.00	30.224 
16:05	82.2	82.2	80.5	28	45.8	0	1	90	0.00	30.222 
16:10	82.2	82.2	80.6	30	47.7	0	1	90	0.00	30.219 
16:15	82.0	82.0	80.4	29	46.6	0	2	90	0.00	30.219 
16:20	82.0	82.0	80.4	29	46.6	1	3	90	0.00	30.219 
16:25	81.8	81.8	80.3	30	47.3	0	2	90	0.00	30.218 
16:30	81.8	81.8	80.3	30	47.3	1	3	90	0.00	30.219 
16:35	81.8	81.8	80.4	31	48.2	0	2	90	0.00	30.218 
16:40	81.6	81.6	80.1	29	46.2	0	2	90	0.00	30.216 
16:45	81.4	81.4	80.1	30	47.0	0	3	90	0.00	30.219 
16:50	81.2	81.2	79.9	30	46.8	1	4	90	0.00	30.220 
16:55	81.2	81.2	79.9	30	46.8	0	2	90	0.00	30.219 
17:00	81.1	81.1	79.9	31	47.6	0	2	90	0.00	30.218 
17:05	81.1	81.1	80.0	32	48.4	0	2	90	0.00	30.218 
17:10	80.7	80.7	79.8	33	48.9	0	2	90	0.00	30.218 
17:15	80.5	80.5	79.7	33	48.7	0	1	90	0.00	30.218 
17:20	80.1	80.1	79.6	35	50.0	0	1	90	0.00	30.217 
17:25	79.8	79.8	79.3	34	48.9	0	2	90	0.00	30.217 
17:30	79.4	79.4	79.2	35	49.3	0	1	90	0.00	30.217 
17:35	79.0	79.0	79.0	36	49.7	0	0	---	0.00	30.219 
17:40	78.5	78.5	78.8	37	50.0	0	0	---	0.00	30.220 
17:45	77.9	77.9	78.6	38	50.2	0	0	---	0.00	30.222 
17:50	77.0	77.0	78.2	39	50.1	0	0	---	0.00	30.225 
17:55	76.1	76.1	77.9	41	50.7	0	0	---	0.00	30.224 
18:00	75.4	75.4	77.7	42	50.7	0	0	---	0.00	30.225 
18:05	74.6	74.6	74.6	45	51.8	0	0	---	0.00	30.226 
18:10	73.9	73.9	73.9	46	51.8	0	0	---	0.00	30.225 
18:15	73.0	73.0	73.0	48	52.1	0	0	---	0.00	30.224 
18:20	72.1	72.1	72.1	50	52.4	0	0	---	0.00	30.223 
18:25	71.3	71.3	71.3	52	52.8	0	0	---	0.00	30.223 
18:30	70.4	70.4	70.4	53	52.4	0	0	---	0.00	30.225 
18:35	69.8	69.8	69.8	55	52.9	0	0	---	0.00	30.225 
18:40	68.9	68.9	68.9	57	53.0	0	0	---	0.00	30.227 
18:45	68.1	68.1	68.1	58	52.8	0	0	---	0.00	30.226 
18:50	67.3	67.3	67.3	60	52.9	0	0	---	0.00	30.228 
18:55	66.6	66.6	66.6	60	52.3	0	0	---	0.00	30.228 
19:00	66.0	66.0	66.0	60	51.7	0	0	---	0.00	30.228 
19:05	65.6	65.6	65.6	60	51.3	0	0	---	0.00	30.227 
19:10	65.3	65.3	65.3	61	51.5	0	0	---	0.00	30.228 
19:15	65.0	65.0	65.0	62	51.7	0	0	---	0.00	30.228 
19:20	64.7	64.7	64.7	62	51.4	0	0	---	0.00	30.232 
19:25	64.5	64.5	64.5	62	51.2	0	0	---	0.00	30.237 
19:30	64.3	64.3	64.3	63	51.4	0	0	---	0.00	30.242 
19:35	64.0	64.0	64.0	63	51.1	0	0	---	0.00	30.244 
19:40	63.7	63.7	63.7	64	51.3	0	0	---	0.00	30.245 
19:45	63.4	63.4	63.4	65	51.4	0	0	---	0.00	30.245 
19:50	63.1	63.1	63.1	66	51.6	0	0	---	0.00	30.245 
19:55	62.7	62.7	62.7	67	51.6	0	0	---	0.00	30.244 
20:00	62.3	62.3	62.3	68	51.6	0	0	---	0.00	30.246 
20:05	61.8	61.8	61.8	68	51.1	0	0	---	0.00	30.243 
20:10	61.5	61.5	61.5	69	51.2	0	0	---	0.00	30.249 
20:15	61.2	61.2	61.2	71	51.7	0	0	---	0.00	30.253 
20:20	60.9	60.9	60.9	71	51.4	0	0	---	0.00	30.254 
20:25	60.7	60.7	60.7	71	51.2	0	1	90	0.00	30.255 
20:30	60.9	60.9	60.9	69	50.7	0	1	90	0.00	30.257 
20:35	61.0	61.0	61.0	69	50.8	0	0	---	0.00	30.259 
20:40	61.2	61.2	61.2	68	50.5	0	1	90	0.00	30.260 
20:45	61.5	61.5	61.5	66	50.0	0	3	90	0.00	30.259 
20:50	62.0	62.0	62.0	65	50.1	0	2	90	0.00	30.259 
20:55	62.4	62.4	62.4	65	50.5	0	3	90	0.00	30.260 
21:00	62.7	62.7	62.7	64	50.3	0	2	90	0.00	30.262 
21:05	62.7	62.7	62.7	64	50.3	0	2	90	0.00	30.257 
21:10	62.6	62.6	62.6	64	50.2	0	0	---	0.00	30.262 
21:15	62.3	62.3	62.3	65	50.4	0	0	---	0.00	30.265 
21:20	62.0	62.0	62.0	66	50.5	0	1	90	0.00	30.266 
21:25	61.6	61.6	61.6	67	50.5	0	0	---	0.00	30.267 
21:30	61.2	61.2	61.2	68	50.5	0	0	---	0.00	30.271 
21:35	60.7	60.7	60.7	69	50.5	0	0	---	0.00	30.273 
21:40	60.4	60.4	60.4	70	50.6	0	0	---	0.00	30.277 
21:45	59.9	59.9	59.9	71	50.5	0	0	---	0.00	30.278 
21:50	59.5	59.5	59.5	72	50.5	0	0	---	0.00	30.281 
21:55	59.2	59.2	59.2	73	50.5	0	2	90	0.00	30.284 
22:00	59.0	59.0	59.0	74	50.7	0	1	90	0.00	30.284 
22:05	58.9	58.9	58.9	74	50.6	0	1	90	0.00	30.280 
22:10	58.9	58.9	58.9	74	50.6	0	0	---	0.00	30.281 
22:15	58.7	58.7	58.7	75	50.8	0	0	---	0.00	30.283 
22:20	58.4	58.4	58.4	76	50.9	0	0	---	0.00	30.283 
22:25	58.1	58.1	58.1	76	50.6	0	0	---	0.00	30.286 
22:30	58.0	58.0	58.0	77	50.8	0	0	---	0.00	30.285 
22:35	57.5	57.5	57.5	77	50.3	0	0	---	0.00	30.287 
22:40	57.2	57.2	57.2	78	50.4	0	0	---	0.00	30.287 
22:45	57.0	57.0	57.0	79	50.5	0	1	90	0.00	30.284 
22:50	56.7	56.7	56.7	81	50.9	0	1	90	0.00	30.283 
22:55	56.9	56.9	56.9	81	51.1	0	1	90	0.00	30.283 
23:00	56.9	56.9	56.9	80	50.8	0	0	---	0.00	30.284 
23:05	56.9	56.9	56.9	80	50.8	0	1	90	0.00	30.278 
23:10	56.9	56.9	56.9	80	50.8	0	2	90	0.00	30.277 
23:15	56.7	56.7	56.7	80	50.6	0	0	---	0.00	30.276 
23:20	56.5	56.5	56.5	81	50.7	0	0	---	0.00	30.277 
23:25	56.2	56.2	56.2	81	50.4	0	0	---	0.00	30.279 
23:30	55.9	55.9	55.9	81	50.2	0	0	---	0.00	30.278 
23:35	55.6	55.6	55.6	81	49.9	0	0	---	0.00	30.278 
23:40	55.3	55.3	55.3	83	50.2	0	0	---	0.00	30.277 
23:45	55.1	55.1	55.1	83	50.0	0	0	---	0.00	30.277 
23:50	54.8	54.8	54.8	84	50.1	0	0	---	0.00	30.275 
23:55	54.7	54.7	54.7	85	50.3	0	0	---	0.00	30.273 

CoCoRaHS
IN-AL-39
A2 Web Hosting
Creative Commons License
GoDaddy
Look for:

loaded 2017-12-13 02:56:45 • last modified 2010-11-18 10:43:29
Privacy PolicyDisclaimer
• wx.awcolley.com is powered by PmWiki v.2002016 •
• all content (unless otherwise noted) © 2017 A W Colley